createdAt,value
2018-01-27T00:00:21.918Z,29.90
2018-01-27T00:01:21.855Z,30.90
2018-01-27T00:02:21.837Z,29.80
2018-01-27T00:03:21.769Z,30.90
2018-01-27T00:04:21.723Z,30.60
2018-01-27T00:05:21.691Z,30.40
2018-01-27T00:06:21.680Z,30.40
2018-01-27T00:07:21.606Z,31.20
2018-01-27T00:08:21.565Z,31.30
2018-01-27T00:09:21.519Z,31.60
2018-01-27T00:10:21.483Z,31.60
2018-01-27T00:11:21.437Z,31.90
2018-01-27T00:12:21.421Z,31.50
2018-01-27T00:13:21.359Z,30.90
2018-01-27T00:14:21.323Z,31.30
2018-01-27T00:15:21.279Z,30.20
2018-01-27T00:16:21.240Z,29.50
2018-01-27T00:17:21.193Z,30.40
2018-01-27T00:18:21.184Z,29.40
2018-01-27T00:19:21.128Z,31.40
2018-01-27T00:20:21.068Z,31.80
2018-01-27T00:21:21.033Z,31.70
2018-01-27T00:22:20.990Z,32.00
2018-01-27T00:23:20.973Z,31.10
2018-01-27T00:24:20.915Z,31.00
2018-01-27T00:25:20.872Z,31.40
2018-01-27T00:26:20.833Z,31.70
2018-01-27T00:27:20.815Z,30.40
2018-01-27T00:28:20.777Z,31.00
2018-01-27T00:29:20.704Z,32.00
2018-01-27T00:30:20.664Z,31.30
2018-01-27T00:31:20.636Z,31.10
2018-01-27T00:32:20.588Z,30.80
2018-01-27T00:33:20.572Z,31.20
2018-01-27T00:34:20.508Z,30.90
2018-01-27T00:35:20.484Z,31.90
2018-01-27T00:36:20.425Z,29.80
2018-01-27T00:37:20.378Z,31.10
2018-01-27T00:38:20.370Z,30.10
2018-01-27T00:39:20.304Z,30.80
2018-01-27T00:40:20.267Z,30.10
2018-01-27T00:41:20.212Z,30.50
2018-01-27T00:42:20.181Z,30.50
2018-01-27T00:43:20.133Z,31.40
2018-01-27T00:44:20.125Z,30.00
2018-01-27T00:45:20.064Z,31.70
2018-01-27T00:46:20.017Z,31.10
2018-01-27T00:47:20.031Z,29.80
2018-01-27T00:48:19.935Z,29.70
2018-01-27T00:49:19.888Z,30.40
2018-01-27T00:50:19.878Z,30.30
2018-01-27T00:51:19.811Z,30.90
2018-01-27T00:52:19.767Z,31.80
2018-01-27T00:53:19.727Z,32.60
2018-01-27T00:54:19.685Z,32.30
2018-01-27T00:55:19.650Z,31.50
2018-01-27T00:56:19.627Z,30.80
2018-01-27T00:57:19.579Z,31.30
2018-01-27T00:58:19.518Z,32.20
2018-01-27T00:59:19.493Z,30.60
2018-01-27T01:00:19.476Z,32.00
2018-01-27T01:01:19.407Z,30.40
2018-01-27T01:02:19.363Z,31.60
2018-01-27T01:03:19.320Z,32.00
2018-01-27T01:04:19.286Z,33.60
2018-01-27T01:05:19.235Z,33.00
2018-01-27T01:06:19.230Z,32.90
2018-01-27T01:07:19.157Z,34.20
2018-01-27T01:08:19.120Z,32.70
2018-01-27T01:09:19.077Z,32.50
2018-01-27T01:10:19.041Z,32.50
2018-01-27T01:11:18.995Z,32.60
2018-01-27T01:12:18.983Z,33.00
2018-01-27T01:13:18.913Z,31.30
2018-01-27T01:14:18.880Z,31.00
2018-01-27T01:15:18.835Z,30.40
2018-01-27T01:16:18.799Z,30.50
2018-01-27T01:17:18.754Z,29.90
2018-01-27T01:18:18.743Z,30.50
2018-01-27T01:19:18.671Z,30.60
2018-01-27T01:20:18.636Z,30.60
2018-01-27T01:21:18.587Z,31.30
2018-01-27T01:22:18.567Z,32.70
2018-01-27T01:23:18.505Z,33.60
2018-01-27T01:24:18.464Z,32.90
2018-01-27T01:25:18.421Z,34.80
2018-01-27T01:26:18.390Z,33.50
2018-01-27T01:27:18.365Z,32.20
2018-01-27T01:28:18.303Z,33.10
2018-01-27T01:29:18.263Z,32.30
2018-01-27T01:30:18.221Z,33.60
2018-01-27T01:31:18.180Z,33.20
2018-01-27T01:32:18.143Z,35.80
2018-01-27T01:33:18.132Z,33.80
2018-01-27T01:34:18.055Z,32.80
2018-01-27T01:35:18.038Z,33.20
2018-01-27T01:36:17.983Z,31.70
2018-01-27T01:37:17.950Z,33.70
2018-01-27T01:38:17.895Z,32.30
2018-01-27T01:39:17.889Z,32.10
2018-01-27T01:40:17.818Z,32.70
2018-01-27T01:41:17.771Z,34.90
2018-01-27T01:42:17.732Z,34.70
2018-01-27T01:43:17.696Z,33.90
2018-01-27T01:44:17.655Z,33.30
2018-01-27T01:45:17.648Z,32.90
2018-01-27T01:46:17.578Z,33.90
2018-01-27T01:47:17.529Z,32.60
2018-01-27T01:48:17.487Z,32.60
2018-01-27T01:49:17.456Z,32.60
2018-01-27T01:50:17.409Z,34.70
2018-01-27T01:51:17.390Z,33.60
2018-01-27T01:52:17.331Z,34.40
2018-01-27T01:53:17.299Z,33.80
2018-01-27T01:54:17.253Z,33.40
2018-01-27T01:55:17.199Z,32.30
2018-01-27T01:56:17.165Z,31.60
2018-01-27T01:57:17.152Z,32.20
2018-01-27T01:58:17.087Z,32.00
2018-01-27T01:59:17.043Z,32.30
2018-01-27T02:00:17.001Z,32.90
2018-01-27T02:01:16.956Z,33.60
2018-01-27T02:02:16.922Z,34.10
2018-01-27T02:03:16.905Z,34.00
2018-01-27T02:04:16.833Z,32.00
2018-01-27T02:05:16.806Z,32.40
2018-01-27T02:06:16.770Z,33.10
2018-01-27T02:07:16.714Z,32.20
2018-01-27T02:08:16.708Z,32.50
2018-01-27T02:09:16.637Z,32.40
2018-01-27T02:10:16.592Z,32.10
2018-01-27T02:11:16.548Z,31.80
2018-01-27T02:12:16.516Z,31.60
2018-01-27T02:13:16.498Z,31.80
2018-01-27T02:14:16.434Z,32.40
2018-01-27T02:15:16.394Z,33.40
2018-01-27T02:16:16.345Z,32.60
2018-01-27T02:17:16.306Z,33.00
2018-01-27T02:18:16.310Z,34.00
2018-01-27T02:19:16.230Z,33.50
2018-01-27T02:20:16.194Z,32.80
2018-01-27T02:21:16.153Z,32.50
2018-01-27T02:22:16.105Z,32.70
2018-01-27T02:23:16.066Z,32.40
2018-01-27T02:24:16.052Z,32.30
2018-01-27T02:25:15.984Z,33.00
2018-01-27T02:26:15.940Z,32.10
2018-01-27T02:27:15.913Z,32.80
2018-01-27T02:28:15.857Z,32.80
2018-01-27T02:29:15.824Z,32.30
2018-01-27T02:30:15.809Z,32.80
2018-01-27T02:31:15.743Z,32.60
2018-01-27T02:32:15.700Z,32.20
2018-01-27T02:33:15.656Z,31.90
2018-01-27T02:34:15.619Z,32.50
2018-01-27T02:35:15.589Z,31.80
2018-01-27T02:36:15.568Z,32.30
2018-01-27T02:37:15.500Z,33.00
2018-01-27T02:38:15.468Z,32.80
2018-01-27T02:39:15.416Z,33.50
2018-01-27T02:40:15.375Z,34.10
2018-01-27T02:41:15.328Z,33.50
2018-01-27T02:42:15.328Z,33.70
2018-01-27T02:43:15.253Z,33.10
2018-01-27T02:44:15.220Z,33.00
2018-01-27T02:45:15.218Z,33.10
2018-01-27T02:46:15.190Z,33.00
2018-01-27T02:47:15.096Z,33.40
2018-01-27T02:48:15.085Z,32.90
2018-01-27T02:49:15.011Z,33.30
2018-01-27T02:50:14.967Z,32.00
2018-01-27T02:51:14.925Z,32.70
2018-01-27T02:52:14.885Z,33.10
2018-01-27T02:53:14.849Z,32.40
2018-01-27T02:54:14.830Z,33.40
2018-01-27T02:55:14.769Z,32.30
2018-01-27T02:56:14.724Z,32.20
2018-01-27T02:57:14.689Z,32.70
2018-01-27T02:58:14.640Z,32.60
2018-01-27T02:59:14.624Z,31.80
2018-01-27T03:00:14.565Z,31.90
2018-01-27T03:01:14.516Z,32.30
2018-01-27T03:02:14.478Z,32.10
2018-01-27T03:03:14.445Z,32.30
2018-01-27T03:04:14.429Z,32.70
2018-01-27T03:05:14.361Z,33.10
2018-01-27T03:06:14.322Z,33.60
2018-01-27T03:07:14.280Z,33.10
2018-01-27T03:08:14.238Z,32.60
2018-01-27T03:09:14.198Z,32.80
2018-01-27T03:10:14.196Z,31.60
2018-01-27T03:11:14.110Z,32.60
2018-01-27T03:12:14.080Z,33.00
2018-01-27T03:13:14.041Z,32.00
2018-01-27T03:14:13.990Z,32.30
2018-01-27T03:15:13.956Z,32.70
2018-01-27T03:16:13.945Z,32.90
2018-01-27T03:17:13.878Z,32.40
2018-01-27T03:18:13.833Z,31.80
2018-01-27T03:19:13.792Z,32.30
2018-01-27T03:20:13.754Z,32.70
2018-01-27T03:21:13.708Z,31.70
2018-01-27T03:22:13.692Z,33.80
2018-01-27T03:23:13.637Z,33.80
2018-01-27T03:24:13.595Z,34.40
2018-01-27T03:25:13.545Z,34.50
2018-01-27T03:26:13.510Z,34.10
2018-01-27T03:27:13.469Z,35.30
2018-01-27T03:28:13.460Z,34.60
2018-01-27T03:29:13.402Z,34.30
2018-01-27T03:30:13.354Z,34.30
2018-01-27T03:31:13.299Z,33.90
2018-01-27T03:32:13.266Z,35.60
2018-01-27T03:33:13.302Z,35.70
2018-01-27T03:34:13.209Z,35.20
2018-01-27T03:35:13.136Z,35.20
2018-01-27T03:36:13.107Z,35.70
2018-01-27T03:37:13.058Z,36.50
2018-01-27T03:38:13.034Z,38.00
2018-01-27T03:39:12.976Z,37.40
2018-01-27T03:40:12.966Z,37.10
2018-01-27T03:41:12.905Z,36.30
2018-01-27T03:42:12.864Z,37.00
2018-01-27T03:43:12.817Z,38.10
2018-01-27T03:44:12.778Z,38.90
2018-01-27T03:45:12.734Z,38.00
2018-01-27T03:46:12.720Z,36.80
2018-01-27T03:47:12.652Z,36.00
2018-01-27T03:48:12.611Z,35.60
2018-01-27T03:49:12.569Z,36.90
2018-01-27T03:50:12.540Z,37.20
2018-01-27T03:51:12.512Z,36.30
2018-01-27T03:52:12.448Z,36.90
2018-01-27T03:53:12.405Z,37.90
2018-01-27T03:54:12.362Z,36.20
2018-01-27T03:55:12.321Z,36.40
2018-01-27T03:56:12.306Z,36.90
2018-01-27T03:57:12.241Z,35.50
2018-01-27T03:58:12.199Z,36.00
2018-01-27T03:59:12.164Z,35.60
2018-01-27T04:00:12.124Z,35.70
2018-01-27T04:01:12.078Z,35.60
2018-01-27T04:02:12.069Z,37.30
2018-01-27T04:03:11.997Z,38.00
2018-01-27T04:04:11.953Z,38.00
2018-01-27T04:05:11.915Z,37.80
2018-01-27T04:06:11.876Z,37.50
2018-01-27T04:07:11.834Z,37.30
2018-01-27T04:08:11.836Z,37.50
2018-01-27T04:09:11.749Z,35.50
2018-01-27T04:10:11.720Z,35.90
2018-01-27T04:11:11.674Z,37.40
2018-01-27T04:12:11.631Z,36.10
2018-01-27T04:13:11.596Z,36.10
2018-01-27T04:14:11.578Z,35.50
2018-01-27T04:15:11.502Z,35.30
2018-01-27T04:16:11.466Z,36.00
2018-01-27T04:17:11.417Z,35.40
2018-01-27T04:18:11.378Z,36.70
2018-01-27T04:19:11.340Z,37.20
2018-01-27T04:20:11.332Z,37.60
2018-01-27T04:21:11.254Z,38.10
2018-01-27T04:22:11.226Z,39.20
2018-01-27T04:23:11.176Z,41.40
2018-01-27T04:24:11.133Z,41.10
2018-01-27T04:25:11.121Z,42.00
2018-01-27T04:26:11.053Z,42.90
2018-01-27T04:27:11.015Z,41.80
2018-01-27T04:28:10.971Z,40.40
2018-01-27T04:29:10.931Z,41.10
2018-01-27T04:30:10.887Z,41.20
2018-01-27T04:31:10.871Z,39.90
2018-01-27T04:32:10.822Z,37.10
2018-01-27T04:33:10.769Z,37.70
2018-01-27T04:34:10.733Z,38.00
2018-01-27T04:35:10.679Z,39.10
2018-01-27T04:36:10.668Z,40.10
2018-01-27T04:37:10.608Z,40.40
2018-01-27T04:38:10.560Z,40.20
2018-01-27T04:39:10.519Z,42.90
2018-01-27T04:40:10.478Z,43.20
2018-01-27T04:41:10.435Z,43.10
2018-01-27T04:42:10.418Z,44.40
2018-01-27T04:43:10.346Z,42.60
2018-01-27T04:44:10.316Z,41.60
2018-01-27T04:45:10.266Z,38.60
2018-01-27T04:46:10.233Z,39.70
2018-01-27T04:47:10.191Z,39.30
2018-01-27T04:48:10.171Z,40.30
2018-01-27T04:49:10.111Z,38.50
2018-01-27T04:50:10.072Z,39.00
2018-01-27T04:51:10.026Z,38.10
2018-01-27T04:52:09.977Z,38.60
2018-01-27T04:53:09.943Z,39.00
2018-01-27T04:54:09.930Z,37.90
2018-01-27T04:55:09.852Z,38.70
2018-01-27T04:56:09.816Z,38.20
2018-01-27T04:57:09.770Z,37.50
2018-01-27T04:58:09.734Z,39.30
2018-01-27T04:59:09.691Z,39.00
2018-01-27T05:00:09.674Z,38.70
2018-01-27T05:01:09.608Z,41.20
2018-01-27T05:02:09.571Z,40.80
2018-01-27T05:03:09.520Z,38.60
2018-01-27T05:04:09.487Z,38.80
2018-01-27T05:05:09.470Z,39.40
2018-01-27T05:06:09.403Z,39.20
2018-01-27T05:07:09.357Z,39.50
2018-01-27T05:08:09.321Z,40.60
2018-01-27T05:09:09.284Z,41.00
2018-01-27T05:10:09.255Z,40.90
2018-01-27T05:11:09.224Z,38.80
2018-01-27T05:12:09.155Z,40.10
2018-01-27T05:13:09.117Z,41.30
2018-01-27T05:14:09.068Z,44.30
2018-01-27T05:15:09.027Z,46.80
2018-01-27T05:16:08.985Z,48.50
2018-01-27T05:17:08.966Z,44.80
2018-01-27T05:18:08.908Z,44.10
2018-01-27T05:19:08.864Z,43.80
2018-01-27T05:20:08.816Z,43.40
2018-01-27T05:21:08.784Z,41.70
2018-01-27T05:22:08.770Z,42.80
2018-01-27T05:23:08.697Z,42.20
2018-01-27T05:24:08.654Z,40.10
2018-01-27T05:25:08.612Z,40.80
2018-01-27T05:26:08.572Z,40.20
2018-01-27T05:27:08.535Z,39.40
2018-01-27T05:28:08.527Z,40.20
2018-01-27T05:29:08.462Z,39.40
2018-01-27T05:30:08.411Z,46.30
2018-01-27T05:31:08.361Z,44.70
2018-01-27T05:32:08.328Z,46.10
2018-01-27T05:33:08.287Z,45.90
2018-01-27T05:34:08.272Z,42.80
2018-01-27T05:35:08.200Z,42.70
2018-01-27T05:36:08.157Z,41.50
2018-01-27T05:37:08.121Z,42.10
2018-01-27T05:38:08.075Z,42.10
2018-01-27T05:39:08.036Z,42.00
2018-01-27T05:40:08.013Z,43.60
2018-01-27T05:41:07.958Z,43.80
2018-01-27T05:42:07.918Z,42.70
2018-01-27T05:43:07.872Z,42.40
2018-01-27T05:44:07.835Z,42.90
2018-01-27T05:45:07.807Z,45.10
2018-01-27T05:46:18.144Z,44.20
2018-01-27T05:47:07.705Z,47.10
2018-01-27T05:48:07.662Z,45.40
2018-01-27T05:49:07.628Z,41.70
2018-01-27T05:50:07.606Z,42.70
2018-01-27T05:51:07.535Z,44.20
2018-01-27T05:52:07.490Z,43.30
2018-01-27T05:53:07.452Z,43.20
2018-01-27T05:54:07.406Z,47.90
2018-01-27T05:55:07.394Z,44.00
2018-01-27T05:56:07.322Z,43.90
2018-01-27T05:57:07.282Z,42.90
2018-01-27T05:58:07.240Z,41.80
2018-01-27T05:59:07.213Z,42.60
2018-01-27T06:00:07.183Z,49.90
2018-01-27T06:01:07.118Z,42.30
2018-01-27T06:02:07.082Z,41.50
2018-01-27T06:03:07.038Z,43.40
2018-01-27T06:04:06.992Z,45.10
2018-01-27T06:05:06.953Z,48.60
2018-01-27T06:06:06.938Z,40.30
2018-01-27T06:07:06.866Z,39.30
2018-01-27T06:08:06.825Z,39.30
2018-01-27T06:09:06.781Z,41.90
2018-01-27T06:10:06.743Z,42.30
2018-01-27T06:11:06.703Z,43.00
2018-01-27T06:12:06.706Z,43.50
2018-01-27T06:13:06.634Z,41.20
2018-01-27T06:14:06.572Z,39.90
2018-01-27T06:15:06.536Z,40.60
2018-01-27T06:16:06.487Z,41.40
2018-01-27T06:17:06.461Z,41.00
2018-01-27T06:18:06.495Z,41.60
2018-01-27T06:19:06.362Z,41.50
2018-01-27T06:20:06.323Z,44.50
2018-01-27T06:21:06.293Z,43.00
2018-01-27T06:22:06.239Z,44.90
2018-01-27T06:23:06.204Z,45.00
2018-01-27T06:24:06.190Z,47.10
2018-01-27T06:25:06.117Z,46.40
2018-01-27T06:26:06.077Z,45.40
2018-01-27T06:27:06.038Z,44.50
2018-01-27T06:28:05.990Z,41.70
2018-01-27T06:29:05.956Z,44.00
2018-01-27T06:30:05.945Z,41.70
2018-01-27T06:31:05.952Z,43.50
2018-01-27T06:32:05.827Z,42.30
2018-01-27T06:33:05.781Z,42.30
2018-01-27T06:34:05.742Z,39.70
2018-01-27T06:35:05.711Z,42.70
2018-01-27T06:36:05.719Z,43.50
2018-01-27T06:37:05.623Z,43.60
2018-01-27T06:38:05.614Z,43.30
2018-01-27T06:39:05.540Z,46.90
2018-01-27T06:40:05.524Z,55.50
2018-01-27T06:41:05.456Z,55.20
2018-01-27T06:42:05.420Z,63.70
2018-01-27T06:43:05.374Z,60.60
2018-01-27T06:44:05.333Z,73.80
2018-01-27T06:45:05.293Z,74.60
2018-01-27T06:46:05.282Z,72.50
2018-01-27T06:47:05.206Z,70.90
2018-01-27T06:48:05.173Z,67.90
2018-01-27T06:49:05.141Z,73.20
2018-01-27T06:50:05.086Z,71.70
2018-01-27T06:51:05.045Z,70.60
2018-01-27T06:52:05.022Z,67.60
2018-01-27T06:53:04.966Z,62.70
2018-01-27T06:54:04.919Z,66.30
2018-01-27T06:55:04.879Z,74.90
2018-01-27T06:56:04.831Z,72.40
2018-01-27T06:57:04.792Z,71.90
2018-01-27T06:58:04.768Z,73.40
2018-01-27T06:59:04.703Z,80.30
2018-01-27T07:00:04.659Z,78.10
2018-01-27T07:01:04.626Z,76.40
2018-01-27T07:02:04.586Z,72.40
2018-01-27T07:03:04.575Z,72.50
2018-01-27T07:04:04.534Z,82.10
2018-01-27T07:05:04.463Z,70.70
2018-01-27T07:06:04.414Z,69.20
2018-01-27T07:07:04.375Z,73.20
2018-01-27T07:08:04.335Z,71.60
2018-01-27T07:09:04.307Z,76.60
2018-01-27T07:10:04.245Z,74.20
2018-01-27T07:11:04.204Z,71.80
2018-01-27T07:12:04.159Z,76.30
2018-01-27T07:13:04.126Z,75.00
2018-01-27T07:14:04.118Z,114.90
2018-01-27T07:15:04.038Z,142.60
2018-01-27T07:16:03.991Z,131.10
2018-01-27T07:17:03.951Z,108.10
2018-01-27T07:18:03.916Z,106.70
2018-01-27T07:19:03.871Z,99.20
2018-01-27T07:20:03.850Z,104.10
2018-01-27T07:21:03.793Z,118.30
2018-01-27T07:22:03.743Z,92.10
2018-01-27T07:23:03.698Z,86.90
2018-01-27T07:24:03.658Z,76.70
2018-01-27T07:25:03.620Z,91.40
2018-01-27T07:26:03.598Z,91.20
2018-01-27T07:27:03.529Z,89.60
2018-01-27T07:28:03.489Z,91.70
2018-01-27T07:29:03.471Z,90.10
2018-01-27T07:30:03.400Z,85.00
2018-01-27T07:31:03.386Z,68.80
2018-01-27T07:32:03.319Z,78.70
2018-01-27T07:33:03.284Z,60.10
2018-01-27T07:34:03.252Z,52.30
2018-01-27T07:35:03.240Z,50.00
2018-01-27T07:36:03.153Z,47.00
2018-01-27T07:37:03.134Z,46.90
2018-01-27T07:38:03.070Z,47.20
2018-01-27T07:39:03.029Z,45.60
2018-01-27T07:40:02.998Z,47.30
2018-01-27T07:41:02.947Z,45.30
2018-01-27T07:42:02.905Z,48.20
2018-01-27T07:43:02.890Z,48.80
2018-01-27T07:44:02.817Z,50.20
2018-01-27T07:45:02.800Z,48.20
2018-01-27T07:46:02.742Z,52.80
2018-01-27T07:47:02.690Z,54.90
2018-01-27T07:48:02.672Z,50.00
2018-01-27T07:49:02.636Z,46.30
2018-01-27T07:50:02.584Z,47.40
2018-01-27T07:51:02.523Z,52.50
2018-01-27T07:52:02.492Z,49.70
2018-01-27T07:53:02.443Z,49.40
2018-01-27T07:54:02.408Z,57.30
2018-01-27T07:55:02.396Z,57.20
2018-01-27T07:56:02.324Z,53.10
2018-01-27T07:57:02.281Z,49.50
2018-01-27T07:58:02.248Z,51.20
2018-01-27T07:59:02.199Z,49.30
2018-01-27T08:00:02.154Z,49.90
2018-01-27T08:01:02.135Z,53.10
2018-01-27T08:02:02.080Z,55.00
2018-01-27T08:03:02.031Z,54.90
2018-01-27T08:04:01.990Z,51.00
2018-01-27T08:05:01.956Z,50.40
2018-01-27T08:06:01.941Z,56.80
2018-01-27T08:07:01.869Z,58.00
2018-01-27T08:08:01.834Z,60.40
2018-01-27T08:09:01.787Z,60.70
2018-01-27T08:10:01.743Z,61.40
2018-01-27T08:11:01.710Z,62.90
2018-01-27T08:12:01.724Z,66.70
2018-01-27T08:13:01.625Z,66.50
2018-01-27T08:14:01.576Z,70.10
2018-01-27T08:15:01.537Z,64.30
2018-01-27T08:16:01.493Z,58.00
2018-01-27T08:17:01.462Z,55.70
2018-01-27T08:18:01.443Z,57.70
2018-01-27T08:19:01.380Z,55.00
2018-01-27T08:20:01.346Z,53.90
2018-01-27T08:21:01.293Z,59.40
2018-01-27T08:22:01.259Z,58.50
2018-01-27T08:23:01.212Z,63.20
2018-01-27T08:24:01.237Z,60.80
2018-01-27T08:25:01.134Z,57.30
2018-01-27T08:26:01.093Z,63.30
2018-01-27T08:27:01.045Z,71.50
2018-01-27T08:28:01.008Z,63.70
2018-01-27T08:29:00.972Z,66.70
2018-01-27T08:30:00.948Z,68.70
2018-01-27T08:31:00.886Z,74.10
2018-01-27T08:32:00.845Z,69.50
2018-01-27T08:33:00.817Z,64.30
2018-01-27T08:34:00.761Z,62.10
2018-01-27T08:35:00.751Z,60.70
2018-01-27T08:36:00.677Z,58.40
2018-01-27T08:37:00.711Z,56.60
2018-01-27T08:38:00.602Z,56.50
2018-01-27T08:39:00.562Z,59.10
2018-01-27T08:40:00.524Z,59.70
2018-01-27T08:41:00.553Z,66.00
2018-01-27T08:42:00.435Z,64.00
2018-01-27T08:43:00.401Z,64.10
2018-01-27T08:44:00.355Z,63.90
2018-01-27T08:45:00.319Z,66.20
2018-01-27T08:46:00.280Z,64.70
2018-01-27T08:47:00.265Z,63.20
2018-01-27T08:48:00.190Z,63.60
2018-01-27T08:49:00.156Z,65.10
2018-01-27T08:50:00.116Z,69.40
2018-01-27T08:51:00.074Z,70.40
2018-01-27T08:52:00.040Z,70.00
2018-01-27T08:53:00.028Z,63.50
2018-01-27T08:53:59.954Z,65.20
2018-01-27T08:54:59.907Z,57.90
2018-01-27T08:55:59.867Z,58.30
2018-01-27T08:56:59.826Z,56.40
2018-01-27T08:57:59.785Z,58.70
2018-01-27T08:58:59.771Z,58.60
2018-01-27T08:59:59.709Z,61.70
2018-01-27T09:00:59.662Z,62.20
2018-01-27T09:01:59.631Z,64.30
2018-01-27T09:02:59.584Z,62.20
2018-01-27T09:03:59.578Z,62.00
2018-01-27T09:04:59.502Z,62.20
2018-01-27T09:05:59.467Z,63.10
2018-01-27T09:06:59.434Z,60.10
2018-01-27T09:07:59.389Z,58.10
2018-01-27T09:08:59.350Z,61.10
2018-01-27T09:09:59.334Z,60.80
2018-01-27T09:10:59.266Z,60.80
2018-01-27T09:11:59.226Z,60.70
2018-01-27T09:12:59.184Z,64.30
2018-01-27T09:13:59.169Z,61.70
2018-01-27T09:14:59.102Z,60.10
2018-01-27T09:15:59.095Z,61.20
2018-01-27T09:16:59.029Z,62.70
2018-01-27T09:17:58.994Z,60.70
2018-01-27T09:18:58.947Z,62.40
2018-01-27T09:19:58.910Z,61.10
2018-01-27T09:20:58.866Z,58.30
2018-01-27T09:21:58.850Z,60.30
2018-01-27T09:22:58.782Z,59.40
2018-01-27T09:23:58.751Z,61.20
2018-01-27T09:24:58.713Z,61.50
2018-01-27T09:25:58.666Z,61.90
2018-01-27T09:26:58.661Z,62.00
2018-01-27T09:27:58.590Z,61.40
2018-01-27T09:28:58.568Z,63.00
2018-01-27T09:29:58.505Z,63.00
2018-01-27T09:30:58.474Z,63.50
2018-01-27T09:31:58.428Z,62.40
2018-01-27T09:32:58.428Z,64.70
2018-01-27T09:33:58.345Z,64.70
2018-01-27T09:34:58.313Z,62.60
2018-01-27T09:35:58.271Z,61.60
2018-01-27T09:36:58.235Z,63.40
2018-01-27T09:37:58.191Z,62.70
2018-01-27T09:38:58.183Z,61.70
2018-01-27T09:39:58.118Z,59.50
2018-01-27T09:40:58.085Z,58.70
2018-01-27T09:41:58.044Z,57.50
2018-01-27T09:42:57.995Z,57.80
2018-01-27T09:43:57.952Z,57.70
2018-01-27T09:44:57.960Z,57.40
2018-01-27T09:45:57.877Z,59.70
2018-01-27T09:46:57.844Z,57.90
2018-01-27T09:47:57.803Z,57.70
2018-01-27T09:48:57.764Z,61.70
2018-01-27T09:49:57.739Z,62.40
2018-01-27T09:50:57.738Z,61.90
2018-01-27T09:51:57.651Z,65.70
2018-01-27T09:52:57.612Z,67.20
2018-01-27T09:53:57.595Z,66.60
2018-01-27T09:54:57.531Z,67.60
2018-01-27T09:55:57.528Z,63.30
2018-01-27T09:56:57.465Z,63.90
2018-01-27T09:57:57.413Z,64.90
2018-01-27T09:58:57.371Z,63.40
2018-01-27T09:59:57.344Z,64.80
2018-01-27T10:00:57.304Z,62.50
2018-01-27T10:01:57.296Z,63.30
2018-01-27T10:02:57.217Z,60.90
2018-01-27T10:03:57.190Z,61.40
2018-01-27T10:04:57.146Z,60.40
2018-01-27T10:05:57.122Z,61.90
2018-01-27T10:06:57.069Z,62.60
2018-01-27T10:07:57.056Z,61.70
2018-01-27T10:08:57.053Z,63.50
2018-01-27T10:09:56.958Z,64.60
2018-01-27T10:10:56.920Z,63.30
2018-01-27T10:11:56.878Z,63.30
2018-01-27T10:12:56.871Z,62.90
2018-01-27T10:13:56.804Z,62.80
2018-01-27T10:14:56.766Z,63.80
2018-01-27T10:15:56.724Z,62.20
2018-01-27T10:16:56.682Z,62.70
2018-01-27T10:17:56.644Z,62.90
2018-01-27T10:18:56.644Z,63.80
2018-01-27T10:19:56.573Z,62.40
2018-01-27T10:20:56.527Z,62.80
2018-01-27T10:21:56.498Z,62.70
2018-01-27T10:22:56.463Z,58.00
2018-01-27T10:23:56.443Z,57.20
2018-01-27T10:24:56.379Z,58.10
2018-01-27T10:25:56.344Z,58.00
2018-01-27T10:26:56.296Z,59.80
2018-01-27T10:27:56.263Z,58.50
2018-01-27T10:28:56.264Z,56.10
2018-01-27T10:29:56.190Z,54.80
2018-01-27T10:30:56.144Z,56.70
2018-01-27T10:31:56.115Z,56.80
2018-01-27T10:32:56.069Z,56.30
2018-01-27T10:33:56.028Z,56.90
2018-01-27T10:34:56.061Z,57.50
2018-01-27T10:35:55.948Z,56.80
2018-01-27T10:36:55.920Z,56.50
2018-01-27T10:37:55.882Z,55.90
2018-01-27T10:38:55.848Z,55.80
2018-01-27T10:39:55.811Z,56.00
2018-01-27T10:40:55.794Z,55.80
2018-01-27T10:41:55.730Z,55.30
2018-01-27T10:42:55.693Z,57.10
2018-01-27T10:43:55.655Z,57.20
2018-01-27T10:44:55.615Z,56.00
2018-01-27T10:45:55.607Z,53.50
2018-01-27T10:46:55.537Z,51.10
2018-01-27T10:47:55.496Z,50.10
2018-01-27T10:48:55.463Z,49.40
2018-01-27T10:49:55.419Z,47.90
2018-01-27T10:50:55.385Z,47.40
2018-01-27T10:51:55.380Z,48.00
2018-01-27T10:52:55.303Z,47.00
2018-01-27T10:53:55.277Z,47.40
2018-01-27T10:54:55.232Z,47.00
2018-01-27T10:55:55.192Z,45.40
2018-01-27T10:56:55.155Z,44.10
2018-01-27T10:57:55.152Z,43.30
2018-01-27T10:58:55.075Z,44.10
2018-01-27T10:59:55.045Z,43.90
2018-01-27T11:00:55.001Z,44.20
2018-01-27T11:01:54.962Z,44.20
2018-01-27T11:02:54.926Z,45.20
2018-01-27T11:03:54.912Z,44.30
2018-01-27T11:04:54.856Z,43.70
2018-01-27T11:05:54.818Z,43.30
2018-01-27T11:06:54.775Z,44.40
2018-01-27T11:07:54.732Z,43.50
2018-01-27T11:08:54.742Z,44.30
2018-01-27T11:09:54.666Z,42.60
2018-01-27T11:10:54.624Z,44.50
2018-01-27T11:11:54.583Z,42.60
2018-01-27T11:12:54.546Z,40.70
2018-01-27T11:13:54.515Z,40.20
2018-01-27T11:14:54.496Z,40.70
2018-01-27T11:15:54.432Z,39.50
2018-01-27T11:16:54.408Z,39.70
2018-01-27T11:17:54.363Z,40.50
2018-01-27T11:18:54.330Z,40.20
2018-01-27T11:19:54.285Z,40.00
2018-01-27T11:20:54.269Z,40.80
2018-01-27T11:21:54.205Z,41.10
2018-01-27T11:22:54.164Z,39.50
2018-01-27T11:23:54.134Z,40.50
2018-01-27T11:24:54.117Z,40.30
2018-01-27T11:25:54.062Z,41.30
2018-01-27T11:26:54.046Z,41.60
2018-01-27T11:27:53.994Z,41.30
2018-01-27T11:28:53.939Z,41.20
2018-01-27T11:29:53.903Z,37.30
2018-01-27T11:30:53.867Z,38.90
2018-01-27T11:31:53.833Z,40.00
2018-01-27T11:32:53.819Z,40.20
2018-01-27T11:33:53.756Z,40.20
2018-01-27T11:34:53.712Z,41.40
2018-01-27T11:35:53.672Z,40.70
2018-01-27T11:36:53.665Z,38.90
2018-01-27T11:37:53.603Z,40.20
2018-01-27T11:38:53.561Z,39.10
2018-01-27T11:39:53.530Z,38.00
2018-01-27T11:40:53.489Z,38.50
2018-01-27T11:41:53.493Z,36.40
2018-01-27T11:42:53.469Z,34.00
2018-01-27T11:43:53.373Z,31.10
2018-01-27T11:44:53.331Z,28.70
2018-01-27T11:45:53.498Z,29.20
2018-01-27T11:46:53.266Z,28.50
2018-01-27T11:47:53.208Z,28.00
2018-01-27T11:48:53.204Z,27.60
2018-01-27T11:49:53.141Z,26.70
2018-01-27T11:50:53.126Z,27.70
2018-01-27T11:51:53.062Z,28.30
2018-01-27T11:52:53.032Z,27.80
2018-01-27T11:53:52.978Z,28.90
2018-01-27T11:54:52.972Z,29.20
2018-01-27T11:55:52.906Z,29.30
2018-01-27T11:56:52.879Z,29.50
2018-01-27T11:57:52.832Z,29.70
2018-01-27T11:58:52.785Z,30.70
2018-01-27T11:59:52.786Z,30.50
2018-01-27T12:00:52.707Z,29.50
2018-01-27T12:01:52.679Z,29.70
2018-01-27T12:02:52.628Z,29.00
2018-01-27T12:03:52.601Z,30.80
2018-01-27T12:04:52.551Z,29.00
2018-01-27T12:05:52.542Z,28.30
2018-01-27T12:06:52.475Z,28.40
2018-01-27T12:07:52.442Z,27.50
2018-01-27T12:08:52.433Z,28.50
2018-01-27T12:09:52.365Z,28.30
2018-01-27T12:10:52.327Z,27.20
2018-01-27T12:11:52.328Z,27.20
2018-01-27T12:12:52.247Z,27.10
2018-01-27T12:13:52.207Z,27.10
2018-01-27T12:14:52.175Z,25.90
2018-01-27T12:15:52.128Z,27.50
2018-01-27T12:16:52.146Z,26.60
2018-01-27T12:17:52.050Z,26.00
2018-01-27T12:18:52.009Z,24.80
2018-01-27T12:19:51.972Z,25.70
2018-01-27T12:20:51.959Z,25.80
2018-01-27T12:21:51.894Z,25.10
2018-01-27T12:22:51.889Z,24.50
2018-01-27T12:23:51.824Z,24.80
2018-01-27T12:24:51.795Z,24.40
2018-01-27T12:25:51.744Z,23.50
2018-01-27T12:26:51.709Z,25.30
2018-01-27T12:27:51.670Z,26.10
2018-01-27T12:28:51.666Z,26.60
2018-01-27T12:29:51.595Z,27.10
2018-01-27T12:30:51.553Z,27.40
2018-01-27T12:31:51.520Z,27.90
2018-01-27T12:32:51.482Z,27.70
2018-01-27T12:33:51.441Z,29.00
2018-01-27T12:34:51.436Z,27.90
2018-01-27T12:35:51.373Z,27.30
2018-01-27T12:36:51.337Z,28.80
2018-01-27T12:37:51.290Z,28.30
2018-01-27T12:38:51.261Z,28.80
2018-01-27T12:39:51.218Z,29.00
2018-01-27T12:40:51.215Z,29.20
2018-01-27T12:41:51.144Z,28.90
2018-01-27T12:42:51.103Z,29.00
2018-01-27T12:43:51.084Z,27.90
2018-01-27T12:44:51.036Z,28.50
2018-01-27T12:45:50.995Z,27.80
2018-01-27T12:46:50.984Z,28.80
2018-01-27T12:47:50.920Z,27.50
2018-01-27T12:48:50.880Z,25.80
2018-01-27T12:49:50.840Z,26.90
2018-01-27T12:50:50.803Z,26.50
2018-01-27T12:51:50.770Z,25.70